createdAt,value
2022-10-09T00:00:50.236Z,0
2022-10-09T00:01:50.362Z,0
2022-10-09T00:02:50.823Z,0
2022-10-09T00:03:52.156Z,0
2022-10-09T00:04:52.299Z,0
2022-10-09T00:05:52.522Z,0
2022-10-09T00:06:52.652Z,0
2022-10-09T00:07:52.789Z,0
2022-10-09T00:08:52.916Z,0
2022-10-09T00:09:53.043Z,0
2022-10-09T00:10:53.172Z,0
2022-10-09T00:11:53.312Z,0
2022-10-09T00:12:53.450Z,0
2022-10-09T00:13:53.581Z,0
2022-10-09T00:14:53.709Z,0
2022-10-09T00:15:53.843Z,0
2022-10-09T00:16:54.045Z,0
2022-10-09T00:17:54.304Z,0
2022-10-09T00:18:54.424Z,0
2022-10-09T00:19:54.562Z,0
2022-10-09T00:20:54.695Z,0
2022-10-09T00:21:54.824Z,0
2022-10-09T00:22:54.953Z,0
2022-10-09T00:23:55.086Z,0
2022-10-09T00:24:55.213Z,0
2022-10-09T00:25:55.342Z,0
2022-10-09T00:26:55.469Z,0
2022-10-09T00:27:55.593Z,0
2022-10-09T00:28:55.792Z,0
2022-10-09T00:29:56.194Z,0
2022-10-09T00:30:56.342Z,0
2022-10-09T00:31:56.613Z,0
2022-10-09T00:32:56.743Z,0
2022-10-09T00:33:56.884Z,0
2022-10-09T00:34:57.015Z,0
2022-10-09T00:35:57.152Z,0
2022-10-09T00:36:57.286Z,0
2022-10-09T00:37:57.412Z,0
2022-10-09T00:38:57.541Z,0
2022-10-09T00:39:57.673Z,0
2022-10-09T00:40:57.807Z,0
2022-10-09T00:41:57.937Z,0
2022-10-09T00:42:58.087Z,0
2022-10-09T00:43:58.222Z,0
2022-10-09T00:44:58.354Z,0
2022-10-09T00:45:58.510Z,0
2022-10-09T00:46:58.770Z,0
2022-10-09T00:47:58.896Z,0
2022-10-09T00:48:59.021Z,0
2022-10-09T00:49:59.153Z,0
2022-10-09T00:50:59.281Z,0
2022-10-09T00:51:59.411Z,0
2022-10-09T00:52:59.536Z,0
2022-10-09T00:53:59.660Z,0
2022-10-09T00:54:59.795Z,0
2022-10-09T00:55:59.931Z,0
2022-10-09T00:57:00.071Z,0
2022-10-09T00:58:00.209Z,0
2022-10-09T00:59:00.329Z,0
2022-10-09T01:00:00.452Z,0
2022-10-09T01:01:00.606Z,0
2022-10-09T01:02:01.005Z,0
2022-10-09T01:03:01.455Z,0
2022-10-09T01:04:01.576Z,0
2022-10-09T01:05:01.705Z,0
2022-10-09T01:06:01.841Z,0
2022-10-09T01:07:01.967Z,0
2022-10-09T01:08:02.096Z,0
2022-10-09T01:09:02.231Z,0
2022-10-09T01:10:02.357Z,0
2022-10-09T01:11:02.499Z,0
2022-10-09T01:12:02.631Z,0
2022-10-09T01:13:02.756Z,0
2022-10-09T01:14:02.877Z,0
2022-10-09T01:15:03.008Z,0
2022-10-09T01:16:03.238Z,0
2022-10-09T01:17:03.519Z,0
2022-10-09T01:18:03.633Z,0
2022-10-09T01:19:03.762Z,0
2022-10-09T01:20:03.885Z,0
2022-10-09T01:21:04.036Z,0
2022-10-09T01:22:04.171Z,0
2022-10-09T01:23:04.296Z,0
2022-10-09T01:24:04.419Z,0
2022-10-09T01:25:04.538Z,0
2022-10-09T01:26:04.664Z,0
2022-10-09T01:27:04.798Z,0
2022-10-09T01:28:04.994Z,0
2022-10-09T01:29:05.335Z,0
2022-10-09T01:30:05.501Z,0
2022-10-09T01:31:05.733Z,0
2022-10-09T01:32:06.166Z,0
2022-10-09T01:33:06.303Z,0
2022-10-09T01:34:06.436Z,0
2022-10-09T01:35:06.559Z,0
2022-10-09T01:36:06.707Z,0
2022-10-09T01:37:06.841Z,0
2022-10-09T01:38:06.970Z,0
2022-10-09T01:39:07.099Z,0
2022-10-09T01:40:07.231Z,0
2022-10-09T01:41:07.380Z,0
2022-10-09T01:42:07.509Z,0
2022-10-09T01:43:07.643Z,0
2022-10-09T01:44:07.774Z,0
2022-10-09T01:45:07.900Z,0
2022-10-09T01:46:08.040Z,0
2022-10-09T01:47:08.286Z,0
2022-10-09T01:48:08.419Z,0
2022-10-09T01:49:08.556Z,0
2022-10-09T01:50:08.682Z,0
2022-10-09T01:51:08.808Z,0
2022-10-09T01:52:08.931Z,0
2022-10-09T01:53:09.055Z,0
2022-10-09T01:54:09.188Z,0
2022-10-09T01:55:09.325Z,0
2022-10-09T01:56:09.447Z,0
2022-10-09T01:57:09.565Z,0
2022-10-09T01:58:09.693Z,0
2022-10-09T01:59:13.552Z,0
2022-10-09T02:00:16.441Z,0
2022-10-09T02:01:16.640Z,0
2022-10-09T02:02:17.177Z,0
2022-10-09T02:03:17.673Z,0
2022-10-09T02:04:17.817Z,0
2022-10-09T02:05:17.957Z,0
2022-10-09T02:06:18.079Z,0
2022-10-09T02:07:18.204Z,0
2022-10-09T02:08:18.336Z,0
2022-10-09T02:09:18.466Z,0
2022-10-09T02:10:18.601Z,0
2022-10-09T02:11:18.724Z,0
2022-10-09T02:12:18.846Z,0
2022-10-09T02:13:18.968Z,0
2022-10-09T02:14:19.096Z,0
2022-10-09T02:15:19.240Z,0
2022-10-09T02:16:19.410Z,0
2022-10-09T02:17:19.653Z,0
2022-10-09T02:18:19.774Z,0
2022-10-09T02:19:19.906Z,0
2022-10-09T02:20:20.035Z,0
2022-10-09T02:21:20.169Z,0
2022-10-09T02:22:20.293Z,0
2022-10-09T02:23:20.420Z,0
2022-10-09T02:24:20.542Z,0
2022-10-09T02:25:20.676Z,0
2022-10-09T02:26:20.798Z,0
2022-10-09T02:27:20.939Z,0
2022-10-09T02:28:21.159Z,0
2022-10-09T02:29:21.534Z,0
2022-10-09T02:30:21.658Z,0
2022-10-09T02:31:21.881Z,0
2022-10-09T02:32:22.112Z,0
2022-10-09T02:33:22.239Z,0
2022-10-09T02:34:22.365Z,0
2022-10-09T02:35:22.491Z,0
2022-10-09T02:36:22.626Z,0
2022-10-09T02:37:22.753Z,0
2022-10-09T02:38:22.885Z,0
2022-10-09T02:39:23.009Z,0
2022-10-09T02:40:23.131Z,0
2022-10-09T02:41:23.255Z,0
2022-10-09T02:42:23.392Z,0
2022-10-09T02:43:23.518Z,0
2022-10-09T02:44:23.646Z,0
2022-10-09T02:45:23.779Z,0
2022-10-09T02:46:23.935Z,0
2022-10-09T02:47:24.233Z,0
2022-10-09T02:48:24.365Z,0
2022-10-09T02:49:24.488Z,0
2022-10-09T02:50:24.614Z,0
2022-10-09T02:51:24.759Z,0
2022-10-09T02:52:24.884Z,0
2022-10-09T02:53:25.017Z,0
2022-10-09T02:54:25.141Z,0
2022-10-09T02:55:25.272Z,0
2022-10-09T02:56:25.394Z,0
2022-10-09T02:57:25.522Z,0
2022-10-09T02:58:25.645Z,0
2022-10-09T02:59:25.775Z,0
2022-10-09T03:00:25.905Z,0
2022-10-09T03:01:26.071Z,0
2022-10-09T03:02:26.518Z,0
2022-10-09T03:03:27.055Z,0
2022-10-09T03:04:27.183Z,0
2022-10-09T03:05:27.315Z,0
2022-10-09T03:06:27.450Z,0
2022-10-09T03:07:27.579Z,0
2022-10-09T03:08:27.702Z,0
2022-10-09T03:09:31.476Z,0
2022-10-09T03:10:34.150Z,0
2022-10-09T03:11:34.287Z,0
2022-10-09T03:12:34.413Z,0
2022-10-09T03:13:34.567Z,0
2022-10-09T03:14:34.712Z,0
2022-10-09T03:15:34.838Z,0
2022-10-09T03:16:35.057Z,0
2022-10-09T03:17:35.319Z,0
2022-10-09T03:18:35.448Z,0
2022-10-09T03:19:35.571Z,0
2022-10-09T03:20:35.703Z,0
2022-10-09T03:21:35.836Z,0
2022-10-09T03:22:35.966Z,0
2022-10-09T03:23:36.096Z,0
2022-10-09T03:24:36.223Z,0
2022-10-09T03:25:36.352Z,0
2022-10-09T03:26:36.478Z,0
2022-10-09T03:27:36.606Z,0
2022-10-09T03:28:36.809Z,0
2022-10-09T03:29:37.089Z,0
2022-10-09T03:30:37.230Z,0
2022-10-09T03:31:51.649Z,0
2022-10-09T03:32:53.956Z,0
2022-10-09T03:33:54.092Z,0
2022-10-09T03:34:54.254Z,0
2022-10-09T03:35:54.380Z,0
2022-10-09T03:36:54.509Z,0
2022-10-09T03:37:54.633Z,0
2022-10-09T03:38:54.760Z,0
2022-10-09T03:39:54.883Z,0
2022-10-09T03:40:55.008Z,0
2022-10-09T03:41:55.135Z,0
2022-10-09T03:42:55.274Z,0
2022-10-09T03:43:55.403Z,0
2022-10-09T03:44:55.529Z,0
2022-10-09T03:45:58.255Z,0
2022-10-09T03:47:01.419Z,0
2022-10-09T03:48:01.817Z,0
2022-10-09T03:49:01.953Z,0
2022-10-09T03:50:02.080Z,0
2022-10-09T03:51:02.221Z,0
2022-10-09T03:52:02.345Z,0
2022-10-09T03:53:02.465Z,0
2022-10-09T03:54:02.590Z,0
2022-10-09T03:55:02.726Z,0
2022-10-09T03:56:02.859Z,0
2022-10-09T03:57:02.991Z,0
2022-10-09T03:58:03.123Z,0
2022-10-09T03:59:03.251Z,0
2022-10-09T04:00:03.375Z,0
2022-10-09T04:01:03.536Z,0
2022-10-09T04:02:03.889Z,0
2022-10-09T04:03:04.078Z,0
2022-10-09T04:04:04.332Z,0
2022-10-09T04:05:04.465Z,0
2022-10-09T04:06:04.593Z,0
2022-10-09T04:07:04.720Z,0
2022-10-09T04:08:04.848Z,0
2022-10-09T04:09:04.972Z,0
2022-10-09T04:10:05.097Z,0
2022-10-09T04:11:05.226Z,0
2022-10-09T04:12:05.359Z,0
2022-10-09T04:13:05.488Z,0
2022-10-09T04:14:05.617Z,0
2022-10-09T04:15:05.755Z,0
2022-10-09T04:16:05.967Z,0
2022-10-09T04:17:06.367Z,0
2022-10-09T04:18:06.497Z,0
2022-10-09T04:19:06.624Z,0
2022-10-09T04:20:06.774Z,0
2022-10-09T04:21:06.902Z,0
2022-10-09T04:22:07.032Z,0
2022-10-09T04:23:07.172Z,0
2022-10-09T04:24:07.303Z,0
2022-10-09T04:25:07.431Z,0
2022-10-09T04:26:07.567Z,0
2022-10-09T04:27:07.700Z,0
2022-10-09T04:28:07.852Z,0
2022-10-09T04:29:08.070Z,0
2022-10-09T04:30:08.199Z,0
2022-10-09T04:31:08.360Z,0
2022-10-09T04:32:08.800Z,0
2022-10-09T04:33:12.658Z,0
2022-10-09T04:34:13.380Z,0
2022-10-09T04:35:13.501Z,0
2022-10-09T04:36:13.628Z,0
2022-10-09T04:37:13.754Z,0
2022-10-09T04:38:13.903Z,0
2022-10-09T04:39:14.026Z,0
2022-10-09T04:40:14.159Z,0
2022-10-09T04:41:14.308Z,0
2022-10-09T04:42:14.431Z,0
2022-10-09T04:43:14.559Z,0
2022-10-09T04:44:14.685Z,0
2022-10-09T04:45:14.814Z,0
2022-10-09T04:46:14.990Z,0
2022-10-09T04:47:15.310Z,0
2022-10-09T04:48:15.436Z,0
2022-10-09T04:49:15.560Z,0
2022-10-09T04:50:15.698Z,0
2022-10-09T04:51:15.829Z,0
2022-10-09T04:52:15.965Z,0
2022-10-09T04:53:16.091Z,0
2022-10-09T04:54:16.221Z,0
2022-10-09T04:55:16.345Z,0
2022-10-09T04:56:16.470Z,0
2022-10-09T04:57:16.611Z,0
2022-10-09T04:58:16.753Z,0
2022-10-09T04:59:16.883Z,0
2022-10-09T05:00:17.022Z,0
2022-10-09T05:01:17.254Z,0
2022-10-09T05:02:17.593Z,0
2022-10-09T05:03:17.917Z,0
2022-10-09T05:04:18.048Z,0
2022-10-09T05:05:18.185Z,0
2022-10-09T05:06:18.306Z,0
2022-10-09T05:07:18.423Z,0
2022-10-09T05:08:18.549Z,0
2022-10-09T05:09:18.677Z,0
2022-10-09T05:10:18.846Z,0
2022-10-09T05:11:18.982Z,0
2022-10-09T05:12:19.129Z,0
2022-10-09T05:13:19.255Z,0
2022-10-09T05:14:19.377Z,0
2022-10-09T05:15:19.503Z,0
2022-10-09T05:16:19.726Z,1
2022-10-09T05:17:23.127Z,2
2022-10-09T05:18:24.110Z,3
2022-10-09T05:19:24.234Z,5
2022-10-09T05:20:24.396Z,6
2022-10-09T05:21:24.518Z,8
2022-10-09T05:22:24.669Z,11
2022-10-09T05:23:24.800Z,13
2022-10-09T05:24:24.947Z,15
2022-10-09T05:25:25.071Z,17
2022-10-09T05:26:25.197Z,21
2022-10-09T05:27:25.321Z,24
2022-10-09T05:28:25.502Z,27
2022-10-09T05:29:25.845Z,30
2022-10-09T05:30:25.972Z,33
2022-10-09T05:31:26.191Z,37
2022-10-09T05:32:26.669Z,41
2022-10-09T05:33:26.799Z,46
2022-10-09T05:34:26.924Z,51
2022-10-09T05:35:27.062Z,57
2022-10-09T05:36:27.189Z,64
2022-10-09T05:37:27.312Z,64
2022-10-09T05:38:27.439Z,71
2022-10-09T05:39:27.563Z,80
2022-10-09T05:40:29.298Z,88
2022-10-09T05:41:29.568Z,110
2022-10-09T05:42:29.700Z,110
2022-10-09T05:43:29.824Z,130
2022-10-09T05:44:29.952Z,150
2022-10-09T05:45:30.132Z,150
2022-10-09T05:46:30.419Z,169.92
2022-10-09T05:47:30.547Z,169.92
2022-10-09T05:48:30.674Z,189.92
2022-10-09T05:49:30.812Z,209.92
2022-10-09T05:50:30.932Z,209.92
2022-10-09T05:51:31.055Z,240
2022-10-09T05:52:31.188Z,240
2022-10-09T05:53:31.311Z,240
2022-10-09T05:54:31.437Z,269.92
2022-10-09T05:55:31.571Z,300
2022-10-09T05:56:31.698Z,300
2022-10-09T05:57:31.827Z,329.92
2022-10-09T05:58:31.959Z,329.92
2022-10-09T05:59:32.081Z,369.92
2022-10-09T06:00:32.206Z,369.92
2022-10-09T06:01:32.475Z,409.92
2022-10-09T06:02:33.052Z,409.92
2022-10-09T06:03:33.344Z,459.84
2022-10-09T06:04:33.471Z,509.76
2022-10-09T06:05:33.598Z,509.76
2022-10-09T06:06:33.727Z,509.76
2022-10-09T06:07:33.860Z,569.92
2022-10-09T06:08:33.991Z,569.92
2022-10-09T06:09:34.120Z,629.76
2022-10-09T06:10:34.256Z,629.76
2022-10-09T06:11:34.402Z,629.76
2022-10-09T06:12:34.529Z,629.76
2022-10-09T06:13:34.656Z,629.76
2022-10-09T06:14:34.987Z,629.76
2022-10-09T06:15:35.117Z,629.76
2022-10-09T06:16:35.311Z,629.76
2022-10-09T06:17:35.615Z,699.52
2022-10-09T06:18:35.741Z,699.52
2022-10-09T06:19:35.874Z,699.52
2022-10-09T06:20:35.999Z,699.52
2022-10-09T06:21:36.125Z,699.52
2022-10-09T06:22:36.251Z,699.52
2022-10-09T06:23:36.414Z,699.52
2022-10-09T06:24:36.548Z,699.52
2022-10-09T06:25:36.673Z,699.52
2022-10-09T06:26:36.847Z,699.52
2022-10-09T06:27:36.975Z,739.84
2022-10-09T06:28:37.164Z,739.84
2022-10-09T06:29:37.450Z,739.84
2022-10-09T06:30:38.802Z,739.84
2022-10-09T06:31:39.506Z,739.84
2022-10-09T06:32:39.624Z,739.84
2022-10-09T06:33:39.749Z,739.84
2022-10-09T06:34:39.875Z,739.84
2022-10-09T06:35:40.000Z,739.84
2022-10-09T06:36:40.126Z,739.84
2022-10-09T06:37:40.253Z,819.84
2022-10-09T06:38:40.389Z,819.84
2022-10-09T06:39:40.512Z,819.84
2022-10-09T06:40:40.637Z,819.84
2022-10-09T06:41:40.760Z,819.84
2022-10-09T06:42:40.886Z,729.6
2022-10-09T06:43:41.024Z,729.6
2022-10-09T06:44:41.149Z,729.6
2022-10-09T06:45:41.301Z,729.6
2022-10-09T06:46:41.542Z,729.6
2022-10-09T06:47:41.669Z,729.6
2022-10-09T06:48:41.793Z,729.6
2022-10-09T06:49:41.927Z,729.6
2022-10-09T06:50:42.068Z,809.6
2022-10-09T06:51:42.192Z,809.6
2022-10-09T06:52:42.311Z,809.6
2022-10-09T06:53:42.435Z,909.44
2022-10-09T06:54:42.566Z,909.44
2022-10-09T06:55:42.687Z,909.44
2022-10-09T06:56:42.815Z,1019.52
2022-10-09T06:57:42.951Z,1019.52
2022-10-09T06:58:43.074Z,1019.52
2022-10-09T06:59:43.211Z,1139.84
2022-10-09T07:00:43.338Z,1139.84
2022-10-09T07:01:43.537Z,1139.84
2022-10-09T07:02:44.355Z,1139.84
2022-10-09T07:03:44.714Z,1139.84
2022-10-09T07:04:44.846Z,1259.52
2022-10-09T07:05:44.974Z,1259.52
2022-10-09T07:06:45.105Z,1259.52
2022-10-09T07:07:45.248Z,1259.52
2022-10-09T07:08:45.375Z,1259.52
2022-10-09T07:09:45.500Z,1259.52
2022-10-09T07:10:45.623Z,1259.52
2022-10-09T07:11:45.764Z,1259.52
2022-10-09T07:12:46.172Z,1259.52
2022-10-09T07:13:47.269Z,1259.52
2022-10-09T07:14:47.406Z,1338.88
2022-10-09T07:15:47.567Z,1338.88
2022-10-09T07:16:47.878Z,1338.88
2022-10-09T07:17:48.059Z,1338.88
2022-10-09T07:18:48.193Z,1338.88
2022-10-09T07:19:48.319Z,1338.88
2022-10-09T07:20:48.448Z,1479.68
2022-10-09T07:21:48.577Z,1479.68
2022-10-09T07:22:48.913Z,1639.68
2022-10-09T07:23:49.913Z,1639.68
2022-10-09T07:24:50.037Z,1639.68
2022-10-09T07:25:50.166Z,1818.88
2022-10-09T07:26:50.289Z,1818.88
2022-10-09T07:27:50.425Z,2019.84
2022-10-09T07:28:50.614Z,2019.84
2022-10-09T07:29:50.960Z,2259.2
2022-10-09T07:30:51.122Z,2259.2
2022-10-09T07:31:51.437Z,2259.2
2022-10-09T07:32:51.816Z,2499.84
2022-10-09T07:33:52.312Z,2499.84
2022-10-09T07:34:52.438Z,2759.68
2022-10-09T07:35:52.568Z,2759.68
2022-10-09T07:36:52.697Z,2759.68
2022-10-09T07:37:52.826Z,3059.2
2022-10-09T07:38:52.958Z,3059.2
2022-10-09T07:39:53.093Z,3059.2
2022-10-09T07:40:53.225Z,3059.2
2022-10-09T07:41:53.355Z,3059.2
2022-10-09T07:42:53.492Z,3059.2
2022-10-09T07:43:53.664Z,3059.2
2022-10-09T07:44:53.799Z,3059.2
2022-10-09T07:45:53.963Z,3059.2
2022-10-09T07:46:54.208Z,3059.2
2022-10-09T07:47:54.330Z,3379.2
2022-10-09T07:48:54.451Z,3379.2
2022-10-09T07:49:54.576Z,3379.2
2022-10-09T07:50:54.705Z,3379.2
2022-10-09T07:51:54.832Z,3379.2
2022-10-09T07:52:54.959Z,3719.68
2022-10-09T07:53:55.082Z,4098.56
2022-10-09T07:54:55.210Z,4098.56
2022-10-09T07:55:55.335Z,4098.56
2022-10-09T07:56:55.459Z,4098.56
2022-10-09T07:57:55.586Z,4098.56
2022-10-09T07:58:55.712Z,4098.56
2022-10-09T07:59:55.848Z,4098.56
2022-10-09T08:00:55.974Z,4098.56
2022-10-09T08:01:56.170Z,4098.56
2022-10-09T08:02:56.452Z,4098.56
2022-10-09T08:03:56.804Z,4480
2022-10-09T08:04:56.933Z,4480
2022-10-09T08:05:57.056Z,4480
2022-10-09T08:06:57.183Z,4480
2022-10-09T08:07:57.310Z,4480
2022-10-09T08:08:57.431Z,4480
2022-10-09T08:09:57.578Z,4480
2022-10-09T08:10:57.706Z,4480
2022-10-09T08:11:57.829Z,4019.2
2022-10-09T08:12:57.969Z,4019.2
2022-10-09T08:13:58.100Z,4019.2
2022-10-09T08:14:58.239Z,4019.2
2022-10-09T08:15:58.397Z,4019.2
2022-10-09T08:16:58.710Z,4019.2
2022-10-09T08:17:58.836Z,4019.2
2022-10-09T08:18:58.964Z,4019.2
2022-10-09T08:19:59.096Z,4019.2
2022-10-09T08:20:59.242Z,4019.2
2022-10-09T08:22:03.231Z,3778.56
2022-10-09T08:23:03.911Z,3939.84
2022-10-09T08:24:04.041Z,4177.92
2022-10-09T08:25:04.171Z,4597.76
2022-10-09T08:26:04.303Z,4597.76
2022-10-09T08:27:04.427Z,4597.76
2022-10-09T08:28:04.588Z,4597.76
2022-10-09T08:29:05.098Z,4597.76
2022-10-09T08:30:05.292Z,4597.76
2022-10-09T08:31:05.502Z,4139.52
2022-10-09T08:32:05.743Z,4139.52
2022-10-09T08:33:05.877Z,3719.68
2022-10-09T08:34:06.008Z,3719.68
2022-10-09T08:35:06.142Z,3317.76
2022-10-09T08:36:06.266Z,3317.76
2022-10-09T08:37:06.393Z,3317.76
2022-10-09T08:38:06.565Z,3317.76
2022-10-09T08:39:06.699Z,3317.76
2022-10-09T08:40:06.823Z,2979.84
2022-10-09T08:41:06.944Z,2979.84
2022-10-09T08:42:07.085Z,2979.84
2022-10-09T08:43:07.215Z,2979.84
2022-10-09T08:44:07.348Z,2979.84
2022-10-09T08:45:07.472Z,2979.84
2022-10-09T08:46:07.628Z,3279.36
2022-10-09T08:47:07.878Z,3279.36
2022-10-09T08:48:08.004Z,3279.36
2022-10-09T08:49:08.145Z,3279.36
2022-10-09T08:50:08.270Z,3279.36
2022-10-09T08:51:08.406Z,3279.36
2022-10-09T08:52:08.533Z,3279.36
2022-10-09T08:53:08.658Z,3279.36
2022-10-09T08:54:08.789Z,3279.36
2022-10-09T08:55:08.915Z,3279.36
2022-10-09T08:56:09.037Z,3179.52
2022-10-09T08:57:09.163Z,3179.52
2022-10-09T08:58:09.290Z,3179.52
2022-10-09T08:59:09.414Z,3179.52
2022-10-09T09:00:09.536Z,3179.52
2022-10-09T09:01:09.665Z,3179.52
2022-10-09T09:02:09.864Z,3179.52
2022-10-09T09:03:10.211Z,3179.52
2022-10-09T09:04:10.436Z,3179.52
2022-10-09T09:05:10.559Z,3179.52
2022-10-09T09:06:10.683Z,3258.88
2022-10-09T09:07:10.806Z,3258.88
2022-10-09T09:08:10.931Z,3258.88
2022-10-09T09:09:11.066Z,3258.88
2022-10-09T09:10:11.195Z,3258.88
2022-10-09T09:11:11.328Z,3258.88
2022-10-09T09:12:11.460Z,3258.88
2022-10-09T09:13:11.584Z,3258.88
2022-10-09T09:14:11.712Z,3258.88
2022-10-09T09:15:11.840Z,3258.88
2022-10-09T09:16:11.984Z,3499.52
2022-10-09T09:17:12.238Z,3499.52
2022-10-09T09:18:12.359Z,3499.52
2022-10-09T09:19:12.481Z,3499.52
2022-10-09T09:20:12.617Z,3857.92
2022-10-09T09:21:12.745Z,3857.92
2022-10-09T09:22:12.876Z,4277.76
2022-10-09T09:23:12.999Z,4277.76
2022-10-09T09:24:13.124Z,4277.76
2022-10-09T09:25:13.247Z,4277.76
2022-10-09T09:26:13.371Z,4277.76
2022-10-09T09:27:13.502Z,4277.76
2022-10-09T09:28:13.655Z,4277.76
2022-10-09T09:29:14.021Z,4277.76
2022-10-09T09:30:14.156Z,4277.76
2022-10-09T09:31:14.417Z,4277.76
2022-10-09T09:32:14.816Z,4618.24
2022-10-09T09:33:14.941Z,4618.24
2022-10-09T09:34:15.067Z,4618.24
2022-10-09T09:35:15.194Z,4618.24
2022-10-09T09:36:15.319Z,4618.24
2022-10-09T09:37:15.445Z,4618.24
2022-10-09T09:38:15.573Z,4618.24
2022-10-09T09:40:35.963Z,4139.52
2022-10-09T09:41:42.247Z,3939.84
2022-10-09T09:42:42.376Z,3939.84
2022-10-09T09:43:42.497Z,3939.84
2022-10-09T09:44:42.636Z,3939.84
2022-10-09T09:45:42.764Z,3939.84
2022-10-09T09:46:42.953Z,3939.84
2022-10-09T09:47:43.261Z,3939.84
2022-10-09T09:48:43.546Z,4098.56
2022-10-09T09:49:43.678Z,4098.56
2022-10-09T09:51:04.906Z,4098.56
2022-10-09T09:52:29.644Z,4559.36
2022-10-09T09:53:29.776Z,4559.36
2022-10-09T09:54:29.909Z,4559.36
2022-10-09T09:55:30.047Z,4559.36
2022-10-09T09:56:30.219Z,5017.6
2022-10-09T09:58:10.394Z,5058.56
2022-10-09T09:59:10.519Z,5058.56
2022-10-09T10:00:10.642Z,5058.56
2022-10-09T10:01:10.847Z,5058.56
2022-10-09T10:02:11.289Z,5058.56
2022-10-09T10:03:11.714Z,5058.56
2022-10-09T10:04:11.832Z,5058.56
2022-10-09T10:05:11.957Z,5058.56
2022-10-09T10:06:12.080Z,4917.76
2022-10-09T10:07:12.208Z,4917.76
2022-10-09T10:08:12.344Z,4917.76
2022-10-09T10:09:12.466Z,4917.76
2022-10-09T10:10:12.590Z,4917.76
2022-10-09T10:11:12.714Z,4917.76
2022-10-09T10:12:12.844Z,4917.76
2022-10-09T10:13:12.975Z,4917.76
2022-10-09T10:14:13.118Z,4917.76
2022-10-09T10:15:13.245Z,4917.76
2022-10-09T10:16:13.448Z,4759.04
2022-10-09T10:17:16.434Z,4759.04
2022-10-09T10:18:16.751Z,4759.04
2022-10-09T10:19:16.883Z,4759.04
2022-10-09T10:20:17.033Z,4277.76
2022-10-09T10:21:17.168Z,4277.76
2022-10-09T10:22:17.309Z,4277.76
2022-10-09T10:23:17.429Z,3840
2022-10-09T10:24:17.556Z,3840
2022-10-09T10:25:17.684Z,3840
2022-10-09T10:26:17.811Z,3840
2022-10-09T10:27:17.943Z,3840
2022-10-09T10:28:18.173Z,3840
2022-10-09T10:29:18.460Z,3840
2022-10-09T10:30:18.635Z,3840
2022-10-09T10:31:19.045Z,4239.36
2022-10-09T10:32:19.333Z,4239.36
2022-10-09T10:33:19.461Z,4239.36
2022-10-09T10:34:19.602Z,4239.36
2022-10-09T10:35:19.728Z,4239.36
2022-10-09T10:36:19.853Z,4239.36
2022-10-09T10:37:19.975Z,4239.36
2022-10-09T10:38:20.094Z,4239.36
2022-10-09T10:39:20.221Z,4239.36
2022-10-09T10:40:20.348Z,4239.36
2022-10-09T10:41:20.473Z,3799.04
2022-10-09T10:42:20.601Z,3799.04
2022-10-09T10:43:20.727Z,3799.04
2022-10-09T10:44:20.851Z,3799.04
2022-10-09T10:45:20.982Z,3799.04
2022-10-09T10:46:21.163Z,4198.4
2022-10-09T10:47:21.451Z,4198.4
2022-10-09T10:48:21.583Z,4198.4
2022-10-09T10:49:21.707Z,4638.72
2022-10-09T10:50:21.836Z,4638.72
2022-10-09T10:51:21.966Z,4638.72
2022-10-09T10:52:22.098Z,4638.72
2022-10-09T10:53:22.219Z,4638.72
2022-10-09T10:54:22.342Z,4638.72
2022-10-09T10:55:22.479Z,4638.72
2022-10-09T10:56:22.605Z,4638.72
2022-10-09T10:57:22.742Z,4638.72
2022-10-09T10:58:22.872Z,4638.72
2022-10-09T10:59:23.008Z,4618.24
2022-10-09T11:00:23.151Z,4618.24
2022-10-09T11:01:23.323Z,4618.24
2022-10-09T11:02:23.697Z,4618.24
2022-10-09T11:03:23.897Z,4618.24
2022-10-09T11:04:24.222Z,4618.24
2022-10-09T11:05:24.350Z,4618.24
2022-10-09T11:06:24.477Z,4618.24
2022-10-09T11:07:24.603Z,4618.24
2022-10-09T11:08:24.756Z,4618.24
2022-10-09T11:09:24.880Z,4958.72
2022-10-09T11:10:25.014Z,4958.72
2022-10-09T11:11:25.165Z,4958.72
2022-10-09T11:12:43.695Z,4958.72
2022-10-09T11:13:58.074Z,5158.4
2022-10-09T11:14:58.207Z,5158.4
2022-10-09T11:15:58.413Z,5158.4
2022-10-09T11:16:58.730Z,5158.4
2022-10-09T11:17:58.856Z,5158.4
2022-10-09T11:18:58.984Z,5158.4
2022-10-09T11:19:59.122Z,5158.4
2022-10-09T11:20:59.251Z,5158.4
2022-10-09T11:21:59.382Z,5158.4
2022-10-09T11:22:59.511Z,5158.4
2022-10-09T11:23:59.639Z,5158.4
2022-10-09T11:24:59.770Z,5158.4
2022-10-09T11:25:59.896Z,5158.4
2022-10-09T11:27:03.328Z,5158.4
2022-10-09T11:28:04.093Z,5199.36
2022-10-09T11:29:04.473Z,5178.88
2022-10-09T11:30:04.604Z,5178.88
2022-10-09T11:31:04.806Z,5178.88
2022-10-09T11:32:05.306Z,4659.2
2022-10-09T11:33:05.653Z,4659.2
2022-10-09T11:34:05.790Z,4659.2
2022-10-09T11:35:05.923Z,4659.2
2022-10-09T11:36:06.050Z,4659.2
2022-10-09T11:37:06.178Z,4659.2
2022-10-09T11:38:07.956Z,4659.2
2022-10-09T11:39:11.583Z,5017.6
2022-10-09T11:40:11.720Z,5017.6
2022-10-09T11:41:11.849Z,5158.4
2022-10-09T11:42:11.975Z,5158.4
2022-10-09T11:43:12.113Z,5158.4
2022-10-09T11:44:12.235Z,5158.4
2022-10-09T11:45:12.437Z,5158.4
2022-10-09T11:46:12.687Z,5158.4
2022-10-09T11:47:13.024Z,5158.4
2022-10-09T11:48:13.155Z,5158.4
2022-10-09T11:49:13.285Z,5158.4
2022-10-09T11:50:13.446Z,5158.4
2022-10-09T11:51:13.599Z,5079.04
2022-10-09T11:52:13.874Z,5079.04
2022-10-09T11:53:14.003Z,5079.04
2022-10-09T11:54:14.127Z,5079.04
2022-10-09T11:55:14.257Z,5079.04
2022-10-09T11:56:14.387Z,5079.04
2022-10-09T11:57:15.578Z,5079.04
2022-10-09T11:58:15.868Z,5079.04
2022-10-09T11:59:15.995Z,5079.04
2022-10-09T12:00:16.127Z,5079.04
2022-10-09T12:01:16.301Z,5099.52
2022-10-09T12:02:16.706Z,5099.52
2022-10-09T12:03:17.045Z,5099.52
2022-10-09T12:04:23.836Z,5099.52
2022-10-09T12:05:54.631Z,4917.76
2022-10-09T12:06:54.759Z,4917.76
2022-10-09T12:07:54.885Z,4917.76
2022-10-09T12:08:55.015Z,4917.76
2022-10-09T12:09:55.154Z,4917.76
2022-10-09T12:10:55.275Z,4879.36
2022-10-09T12:11:55.405Z,4879.36
2022-10-09T12:12:55.535Z,4879.36
2022-10-09T12:13:55.661Z,4879.36
2022-10-09T12:14:55.798Z,4879.36
2022-10-09T12:15:55.935Z,4879.36
2022-10-09T12:16:56.116Z,4879.36
2022-10-09T12:17:56.445Z,4879.36
2022-10-09T12:18:56.577Z,4879.36
2022-10-09T12:20:00.843Z,4879.36
2022-10-09T12:21:01.517Z,4718.08
2022-10-09T12:22:01.646Z,4718.08
2022-10-09T12:23:24.960Z,4718.08
2022-10-09T12:24:28.449Z,4597.76
2022-10-09T12:25:28.583Z,4597.76
2022-10-09T12:26:28.710Z,4218.88
2022-10-09T12:27:28.834Z,4218.88
2022-10-09T12:28:29.020Z,4218.88
2022-10-09T12:29:29.375Z,4218.88
2022-10-09T12:30:29.536Z,4218.88
2022-10-09T12:31:29.890Z,4218.88
2022-10-09T12:32:30.281Z,4218.88
2022-10-09T12:33:30.414Z,4218.88
2022-10-09T12:34:30.545Z,4218.88
2022-10-09T12:35:30.669Z,4218.88
2022-10-09T12:36:30.792Z,4298.24
2022-10-09T12:37:30.912Z,4298.24
2022-10-09T12:38:31.051Z,4298.24
2022-10-09T12:39:31.177Z,4298.24
2022-10-09T12:40:31.302Z,4298.24
2022-10-09T12:41:31.430Z,4298.24
2022-10-09T12:42:33.614Z,4298.24
2022-10-09T12:43:33.749Z,4298.24
2022-10-09T12:44:33.875Z,4298.24
2022-10-09T12:45:34.038Z,4298.24
2022-10-09T12:46:34.381Z,4339.2
2022-10-09T12:47:34.506Z,4339.2
2022-10-09T12:48:34.634Z,4339.2
2022-10-09T12:49:34.762Z,4339.2
2022-10-09T12:50:34.887Z,3898.88
2022-10-09T12:51:35.012Z,3898.88
2022-10-09T12:52:35.139Z,3898.88
2022-10-09T12:53:35.275Z,3898.88
2022-10-09T12:54:35.394Z,3898.88
2022-10-09T12:55:35.523Z,3898.88
2022-10-09T12:56:35.652Z,3898.88
2022-10-09T12:57:35.780Z,3898.88
2022-10-09T12:58:35.906Z,3898.88
2022-10-09T12:59:36.032Z,3499.52
2022-10-09T13:00:36.156Z,3499.52
2022-10-09T13:01:36.365Z,3499.52
2022-10-09T13:02:36.896Z,3499.52
2022-10-09T13:03:37.399Z,3499.52
2022-10-09T13:04:37.548Z,3499.52
2022-10-09T13:05:37.675Z,3499.52
2022-10-09T13:06:37.815Z,3499.52
2022-10-09T13:07:37.950Z,3499.52
2022-10-09T13:08:38.078Z,3499.52
2022-10-09T13:09:38.203Z,3537.92
2022-10-09T13:10:38.329Z,3537.92
2022-10-09T13:11:38.455Z,3537.92
2022-10-09T13:12:38.581Z,3537.92
2022-10-09T13:13:38.712Z,3537.92
2022-10-09T13:14:38.840Z,3537.92
2022-10-09T13:15:38.969Z,3537.92
2022-10-09T13:16:39.162Z,3537.92
2022-10-09T13:17:39.487Z,3537.92
2022-10-09T13:18:39.617Z,3537.92
2022-10-09T13:19:39.740Z,3678.72
2022-10-09T13:20:39.865Z,3678.72
2022-10-09T13:21:39.997Z,3678.72